createdAt,value
2019-02-04T00:00:50.718Z,1.16
2019-02-04T00:01:50.634Z,1.15
2019-02-04T00:02:50.546Z,1.20
2019-02-04T00:03:50.460Z,1.23
2019-02-04T00:04:50.378Z,1.22
2019-02-04T00:05:50.313Z,1.12
2019-02-04T00:06:50.207Z,1.16
2019-02-04T00:07:50.125Z,1.18
2019-02-04T00:08:50.049Z,1.11
2019-02-04T00:09:49.959Z,1.16
2019-02-04T00:10:49.878Z,1.19
2019-02-04T00:11:49.786Z,1.11
2019-02-04T00:12:49.705Z,1.20
2019-02-04T00:13:49.619Z,1.15
2019-02-04T00:14:49.536Z,1.11
2019-02-04T00:15:49.449Z,1.20
2019-02-04T00:16:49.372Z,1.18
2019-02-04T00:17:49.285Z,1.20
2019-02-04T00:18:49.219Z,1.10
2019-02-04T00:19:49.116Z,1.12
2019-02-04T00:20:49.027Z,1.22
2019-02-04T00:21:48.941Z,1.18
2019-02-04T00:22:48.863Z,1.05
2019-02-04T00:23:48.786Z,1.18
2019-02-04T00:24:48.690Z,1.16
2019-02-04T00:25:48.608Z,1.12
2019-02-04T00:26:51.579Z,1.15
2019-02-04T00:27:48.455Z,1.11
2019-02-04T00:28:48.353Z,1.18
2019-02-04T00:29:48.304Z,1.12
2019-02-04T00:30:48.190Z,1.16
2019-02-04T00:31:48.105Z,1.18
2019-02-04T00:32:48.016Z,1.18
2019-02-04T00:33:47.936Z,1.15
2019-02-04T00:34:47.851Z,1.04
2019-02-04T00:35:47.763Z,1.12
2019-02-04T00:36:47.684Z,1.16
2019-02-04T00:37:47.595Z,1.08
2019-02-04T00:38:47.508Z,1.18
2019-02-04T00:39:47.426Z,1.16
2019-02-04T00:40:47.344Z,1.19
2019-02-04T00:41:47.270Z,1.23
2019-02-04T00:42:47.173Z,1.19
2019-02-04T00:43:47.089Z,1.25
2019-02-04T00:44:47.007Z,1.15
2019-02-04T00:45:46.926Z,1.12
2019-02-04T00:46:52.262Z,1.22
2019-02-04T00:47:46.758Z,1.18
2019-02-04T00:48:46.694Z,1.18
2019-02-04T00:49:46.582Z,1.15
2019-02-04T00:50:46.500Z,1.12
2019-02-04T00:51:46.420Z,1.18
2019-02-04T00:52:46.332Z,1.15
2019-02-04T00:53:46.245Z,1.22
2019-02-04T00:54:46.166Z,1.15
2019-02-04T00:55:46.086Z,1.18
2019-02-04T00:56:46.004Z,1.19
2019-02-04T00:57:45.910Z,1.18
2019-02-04T00:58:45.823Z,1.18
2019-02-04T00:59:45.739Z,1.15
2019-02-04T01:00:45.677Z,1.11
2019-02-04T01:01:45.579Z,1.11
2019-02-04T01:02:45.485Z,1.08
2019-02-04T01:03:45.407Z,1.12
2019-02-04T01:04:45.319Z,1.10
2019-02-04T01:05:45.241Z,1.11
2019-02-04T01:06:45.157Z,1.15
2019-02-04T01:07:45.069Z,1.11
2019-02-04T01:08:44.981Z,1.05
2019-02-04T01:09:44.916Z,1.10
2019-02-04T01:10:44.811Z,1.02
2019-02-04T01:11:44.734Z,1.01
2019-02-04T01:12:44.646Z,0.94
2019-02-04T01:13:44.560Z,0.97
2019-02-04T01:14:44.476Z,0.98
2019-02-04T01:15:44.393Z,1.00
2019-02-04T01:16:44.324Z,0.94
2019-02-04T01:17:44.221Z,0.94
2019-02-04T01:18:44.139Z,0.97
2019-02-04T01:19:44.053Z,0.98
2019-02-04T01:20:43.967Z,0.90
2019-02-04T01:21:43.887Z,0.89
2019-02-04T01:22:43.799Z,1.00
2019-02-04T01:23:43.716Z,0.94
2019-02-04T01:24:43.649Z,0.92
2019-02-04T01:25:43.545Z,1.00
2019-02-04T01:26:43.466Z,0.94
2019-02-04T01:27:43.384Z,0.86
2019-02-04T01:28:43.294Z,0.90
2019-02-04T01:29:43.240Z,0.79
2019-02-04T01:30:43.138Z,0.80
2019-02-04T01:31:43.043Z,0.90
2019-02-04T01:32:42.957Z,0.87
2019-02-04T01:33:42.870Z,0.75
2019-02-04T01:34:42.793Z,0.77
2019-02-04T01:35:42.715Z,0.77
2019-02-04T01:36:42.617Z,0.71
2019-02-04T01:37:42.537Z,0.68
2019-02-04T01:38:42.452Z,0.62
2019-02-04T01:39:42.365Z,0.69
2019-02-04T01:40:42.283Z,0.68
2019-02-04T01:41:42.194Z,0.56
2019-02-04T01:42:42.133Z,0.53
2019-02-04T01:43:42.034Z,0.47
2019-02-04T01:44:41.948Z,0.50
2019-02-04T01:45:41.860Z,0.47
2019-02-04T01:46:41.859Z,0.34
2019-02-04T01:47:41.690Z,0.31
2019-02-04T01:48:41.626Z,0.29
2019-02-04T01:49:41.527Z,0.40
2019-02-04T01:50:41.436Z,0.22
2019-02-04T01:51:41.350Z,0.24
2019-02-04T01:52:41.268Z,0.07
2019-02-04T01:53:41.188Z,-0.08
2019-02-04T01:54:41.123Z,-0.17
2019-02-04T01:55:41.015Z,-0.25
2019-02-04T01:56:40.939Z,-0.22
2019-02-04T01:57:40.848Z,-0.17
2019-02-04T01:58:40.759Z,-0.19
2019-02-04T01:59:40.679Z,-0.30
2019-02-04T02:00:40.595Z,-0.26
2019-02-04T02:01:40.506Z,-0.23
2019-02-04T02:02:40.430Z,-0.35
2019-02-04T02:03:40.338Z,-0.26
2019-02-04T02:04:40.254Z,-0.37
2019-02-04T02:05:40.165Z,-0.41
2019-02-04T02:06:40.090Z,-0.41
2019-02-04T02:07:40.013Z,-0.47
2019-02-04T02:08:39.911Z,-0.58
2019-02-04T02:09:39.824Z,-0.61
2019-02-04T02:10:39.745Z,-0.58
2019-02-04T02:11:39.660Z,-0.59
2019-02-04T02:12:39.574Z,-0.62
2019-02-04T02:13:39.496Z,-0.69
2019-02-04T02:14:39.405Z,-0.71
2019-02-04T02:15:39.363Z,-0.69
2019-02-04T02:16:39.257Z,-0.76
2019-02-04T02:17:39.147Z,-0.74
2019-02-04T02:18:39.063Z,-0.74
2019-02-04T02:19:38.978Z,-0.84
2019-02-04T02:20:38.906Z,-0.95
2019-02-04T02:21:38.816Z,-1.01
2019-02-04T02:22:38.736Z,-1.05
2019-02-04T02:23:38.637Z,-1.11
2019-02-04T02:24:38.554Z,-1.14
2019-02-04T02:25:38.479Z,-1.14
2019-02-04T02:26:38.384Z,-1.20
2019-02-04T02:27:38.303Z,-1.22
2019-02-04T02:28:38.217Z,-1.29
2019-02-04T02:29:38.146Z,-1.41
2019-02-04T02:30:38.047Z,-1.58
2019-02-04T02:31:37.963Z,-1.60
2019-02-04T02:32:37.873Z,-1.68
2019-02-04T02:33:37.786Z,-1.70
2019-02-04T02:34:37.745Z,-1.77
2019-02-04T02:35:37.628Z,-1.68
2019-02-04T02:36:37.530Z,-1.68
2019-02-04T02:37:37.446Z,-1.70
2019-02-04T02:38:37.360Z,-1.70
2019-02-04T02:39:37.275Z,-1.68
2019-02-04T02:40:37.188Z,-1.70
2019-02-04T02:41:37.105Z,-1.71
2019-02-04T02:42:37.017Z,-1.71
2019-02-04T02:43:36.939Z,-1.73
2019-02-04T02:44:36.852Z,-1.60
2019-02-04T02:45:36.759Z,-1.68
2019-02-04T02:46:36.681Z,-1.70
2019-02-04T02:47:38.363Z,-1.74
2019-02-04T02:48:36.508Z,-1.73
2019-02-04T02:49:36.429Z,-1.78
2019-02-04T02:50:36.343Z,-1.83
2019-02-04T02:51:36.259Z,-1.76
2019-02-04T02:52:36.167Z,-1.86
2019-02-04T02:53:36.078Z,-1.83
2019-02-04T02:54:35.998Z,-1.76
2019-02-04T02:55:35.909Z,-1.78
2019-02-04T02:56:35.818Z,-1.71
2019-02-04T02:57:35.737Z,-1.66
2019-02-04T02:58:35.649Z,-1.71
2019-02-04T02:59:35.569Z,-1.77
2019-02-04T03:00:35.484Z,-1.74
2019-02-04T03:01:35.396Z,-1.84
2019-02-04T03:02:35.306Z,-1.81
2019-02-04T03:03:35.227Z,-1.84
2019-02-04T03:04:35.142Z,-1.86
2019-02-04T03:05:35.056Z,-1.95
2019-02-04T03:06:34.966Z,-1.92
2019-02-04T03:07:34.889Z,-2.12
2019-02-04T03:08:34.795Z,-2.16
2019-02-04T03:09:34.727Z,-2.22
2019-02-04T03:10:34.630Z,-2.32
2019-02-04T03:11:34.538Z,-2.47
2019-02-04T03:12:34.483Z,-2.68
2019-02-04T03:13:34.366Z,-2.91
2019-02-04T03:14:34.288Z,-3.03
2019-02-04T03:15:34.197Z,-2.91
2019-02-04T03:16:34.107Z,-2.98
2019-02-04T03:17:34.029Z,-2.98
2019-02-04T03:18:33.944Z,-2.95
2019-02-04T03:19:33.852Z,-2.99
2019-02-04T03:20:33.760Z,-2.99
2019-02-04T03:21:33.678Z,-2.91
2019-02-04T03:22:33.600Z,-2.91
2019-02-04T03:23:33.505Z,-2.89
2019-02-04T03:24:33.421Z,-2.83
2019-02-04T03:25:33.336Z,-2.65
2019-02-04T03:26:33.250Z,-2.67
2019-02-04T03:27:33.168Z,-2.70
2019-02-04T03:28:33.119Z,-2.67
2019-02-04T03:29:32.997Z,-2.57
2019-02-04T03:30:32.956Z,-2.59
2019-02-04T03:31:32.831Z,-2.56
2019-02-04T03:32:32.737Z,-2.53
2019-02-04T03:33:32.652Z,-2.57
2019-02-04T03:34:34.392Z,-2.64
2019-02-04T03:35:32.479Z,-2.73
2019-02-04T03:36:32.386Z,-2.73
2019-02-04T03:37:32.301Z,-2.67
2019-02-04T03:38:32.224Z,-2.78
2019-02-04T03:39:32.129Z,-2.86
2019-02-04T03:40:32.048Z,-2.85
2019-02-04T03:41:31.960Z,-2.96
2019-02-04T03:42:31.870Z,-3.07
2019-02-04T03:43:31.789Z,-3.04
2019-02-04T03:44:31.705Z,-3.09
2019-02-04T03:45:31.635Z,-3.21
2019-02-04T03:46:31.528Z,-3.11
2019-02-04T03:47:31.442Z,-3.13
2019-02-04T03:48:31.361Z,-3.13
2019-02-04T03:49:31.276Z,-3.10
2019-02-04T03:50:31.184Z,-3.10
2019-02-04T03:51:31.099Z,-3.11
2019-02-04T03:52:31.013Z,-3.07
2019-02-04T03:53:30.923Z,-2.98
2019-02-04T03:54:30.838Z,-3.06
2019-02-04T03:55:30.756Z,-3.10
2019-02-04T03:56:30.665Z,-3.07
2019-02-04T03:57:30.578Z,-3.13
2019-02-04T03:58:30.491Z,-3.11
2019-02-04T03:59:30.408Z,-3.03
2019-02-04T04:00:30.338Z,-2.95
2019-02-04T04:01:30.241Z,-2.93
2019-02-04T04:02:30.148Z,-2.89
2019-02-04T04:03:30.067Z,-2.82
2019-02-04T04:04:29.977Z,-2.80
2019-02-04T04:05:29.886Z,-2.74
2019-02-04T04:06:29.806Z,-2.71
2019-02-04T04:07:29.716Z,-2.73
2019-02-04T04:08:29.633Z,-2.68
2019-02-04T04:09:29.542Z,-2.68
2019-02-04T04:10:29.456Z,-2.65
2019-02-04T04:11:29.380Z,-2.71
2019-02-04T04:12:29.286Z,-2.67
2019-02-04T04:13:29.197Z,-2.65
2019-02-04T04:14:29.137Z,-2.68
2019-02-04T04:15:29.023Z,-2.57
2019-02-04T04:16:28.938Z,-2.56
2019-02-04T04:17:28.857Z,-2.57
2019-02-04T04:18:28.762Z,-2.60
2019-02-04T04:19:28.676Z,-2.56
2019-02-04T04:20:28.691Z,-2.42
2019-02-04T04:21:28.541Z,-2.56
2019-02-04T04:22:28.418Z,-2.46
2019-02-04T04:23:28.337Z,-2.42
2019-02-04T04:24:28.248Z,-2.47
2019-02-04T04:25:28.161Z,-2.45
2019-02-04T04:26:28.077Z,-2.32
2019-02-04T04:27:27.994Z,-2.34
2019-02-04T04:28:27.901Z,-2.28
2019-02-04T04:29:27.814Z,-2.34
2019-02-04T04:30:27.730Z,-2.34
2019-02-04T04:31:27.641Z,-2.32
2019-02-04T04:32:29.977Z,-2.23
2019-02-04T04:33:27.474Z,-2.27
2019-02-04T04:34:27.389Z,-2.25
2019-02-04T04:35:27.303Z,-2.25
2019-02-04T04:36:27.216Z,-2.22
2019-02-04T04:37:27.124Z,-2.25
2019-02-04T04:38:27.040Z,-2.25
2019-02-04T04:39:26.955Z,-2.25
2019-02-04T04:40:26.867Z,-2.28
2019-02-04T04:41:26.781Z,-2.28
2019-02-04T04:42:26.697Z,-2.28
2019-02-04T04:43:26.614Z,-2.19
2019-02-04T04:44:26.521Z,-2.22
2019-02-04T04:45:26.436Z,-2.25
2019-02-04T04:46:26.350Z,-2.30
2019-02-04T04:47:26.261Z,-2.32
2019-02-04T04:48:26.892Z,-2.42
2019-02-04T04:49:26.092Z,-2.45
2019-02-04T04:50:26.017Z,-2.56
2019-02-04T04:51:25.919Z,-2.68
2019-02-04T04:52:25.836Z,-2.85
2019-02-04T04:53:25.755Z,-2.86
2019-02-04T04:54:25.661Z,-3.01
2019-02-04T04:55:25.575Z,-3.07
2019-02-04T04:56:25.485Z,-3.16
2019-02-04T04:57:25.400Z,-3.17
2019-02-04T04:58:25.318Z,-3.22
2019-02-04T04:59:25.231Z,-3.16
2019-02-04T05:00:25.153Z,-3.20
2019-02-04T05:01:25.056Z,-3.24
2019-02-04T05:02:24.965Z,-3.20
2019-02-04T05:03:24.887Z,-3.32
2019-02-04T05:04:24.794Z,-3.35
2019-02-04T05:05:24.711Z,-3.39
2019-02-04T05:06:24.630Z,-3.52
2019-02-04T05:07:24.538Z,-3.57
2019-02-04T05:08:24.451Z,-3.61
2019-02-04T05:09:24.366Z,-3.53
2019-02-04T05:10:24.280Z,-3.64
2019-02-04T05:11:24.210Z,-3.61
2019-02-04T05:12:24.099Z,-3.61
2019-02-04T05:13:24.018Z,-3.66
2019-02-04T05:14:23.930Z,-3.61
2019-02-04T05:15:23.854Z,-3.58
2019-02-04T05:16:23.756Z,-3.61
2019-02-04T05:17:23.676Z,-3.53
2019-02-04T05:18:23.595Z,-3.58
2019-02-04T05:19:23.498Z,-3.66
2019-02-04T05:20:23.412Z,-3.89
2019-02-04T05:21:23.324Z,-3.98
2019-02-04T05:22:23.237Z,-4.15
2019-02-04T05:23:23.162Z,-4.35
2019-02-04T05:24:23.062Z,-4.49
2019-02-04T05:25:22.981Z,-4.55
2019-02-04T05:26:22.892Z,-4.61
2019-02-04T05:27:22.812Z,-4.61
2019-02-04T05:28:22.719Z,-4.63
2019-02-04T05:29:22.628Z,-4.61
2019-02-04T05:30:22.550Z,-4.74
2019-02-04T05:31:22.456Z,-4.78
2019-02-04T05:32:22.373Z,-4.74
2019-02-04T05:33:22.283Z,-4.78
2019-02-04T05:34:22.195Z,-4.86
2019-02-04T05:35:22.114Z,-4.81
2019-02-04T05:36:22.017Z,-4.81
2019-02-04T05:37:21.938Z,-4.92
2019-02-04T05:38:21.850Z,-4.94
2019-02-04T05:39:21.762Z,-4.90
2019-02-04T05:40:21.687Z,-4.99
2019-02-04T05:41:21.587Z,-5.06
2019-02-04T05:42:21.502Z,-5.11
2019-02-04T05:43:21.411Z,-5.21
2019-02-04T05:44:21.321Z,-5.16
2019-02-04T05:45:21.240Z,-5.21
2019-02-04T05:46:21.153Z,-5.14
2019-02-04T05:47:21.069Z,-5.10
2019-02-04T05:48:20.981Z,-4.97
2019-02-04T05:49:20.886Z,-4.89
2019-02-04T05:50:20.802Z,-4.94
2019-02-04T05:51:20.712Z,-4.82
2019-02-04T05:52:20.624Z,-5.00
2019-02-04T05:53:20.540Z,-5.18
2019-02-04T05:54:20.454Z,-5.33
2019-02-04T05:55:20.365Z,-5.52
2019-02-04T05:56:20.279Z,-5.69
2019-02-04T05:57:20.186Z,-5.83
2019-02-04T05:58:20.109Z,-5.87
2019-02-04T05:59:20.018Z,-5.89
2019-02-04T06:00:19.928Z,-5.81
2019-02-04T06:01:19.838Z,-5.81
2019-02-04T06:02:19.754Z,-5.93
2019-02-04T06:03:19.677Z,-5.84
2019-02-04T06:04:19.578Z,-5.81
2019-02-04T06:05:19.528Z,-5.89
2019-02-04T06:06:19.409Z,-5.99
2019-02-04T06:07:19.322Z,-5.87
2019-02-04T06:08:19.228Z,-5.94
2019-02-04T06:09:19.138Z,-6.05
2019-02-04T06:10:19.053Z,-6.22
2019-02-04T06:11:18.965Z,-6.33
2019-02-04T06:12:18.874Z,-6.32
2019-02-04T06:13:18.786Z,-6.33
2019-02-04T06:14:18.704Z,-6.30
2019-02-04T06:15:18.710Z,-6.23
2019-02-04T06:16:18.533Z,-6.29
2019-02-04T06:17:18.511Z,-6.33
2019-02-04T06:18:18.348Z,-6.29
2019-02-04T06:19:18.263Z,-6.30
2019-02-04T06:20:18.177Z,-6.23
2019-02-04T06:21:18.118Z,-6.10
2019-02-04T06:22:17.998Z,-5.97
2019-02-04T06:23:17.911Z,-5.96
2019-02-04T06:24:17.833Z,-5.86
2019-02-04T06:25:17.735Z,-5.83
2019-02-04T06:26:17.651Z,-5.81
2019-02-04T06:27:17.563Z,-5.78
2019-02-04T06:28:17.473Z,-5.76
2019-02-04T06:29:17.383Z,-5.73
2019-02-04T06:30:17.300Z,-5.71
2019-02-04T06:31:17.205Z,-5.73
2019-02-04T06:32:17.121Z,-5.72
2019-02-04T06:33:17.030Z,-5.75
2019-02-04T06:34:16.946Z,-5.73
2019-02-04T06:35:16.860Z,-5.78
2019-02-04T06:36:16.768Z,-5.78
2019-02-04T06:37:16.679Z,-5.72
2019-02-04T06:38:16.650Z,-5.65
2019-02-04T06:39:16.505Z,-5.68
2019-02-04T06:40:16.425Z,-5.69
2019-02-04T06:41:16.327Z,-5.73
2019-02-04T06:42:16.243Z,-5.72
2019-02-04T06:43:16.154Z,-5.78
2019-02-04T06:44:16.063Z,-5.65
2019-02-04T06:45:16.089Z,-5.61
2019-02-04T06:46:15.896Z,-5.57
2019-02-04T06:47:15.802Z,-5.50
2019-02-04T06:48:15.714Z,-5.47
2019-02-04T06:49:15.627Z,-5.57
2019-02-04T06:50:15.543Z,-5.69
2019-02-04T06:51:15.455Z,-5.75
2019-02-04T06:52:15.363Z,-5.94
2019-02-04T06:53:15.277Z,-6.04
2019-02-04T06:54:15.186Z,-6.20
2019-02-04T06:55:15.098Z,-6.18
2019-02-04T06:56:15.009Z,-6.17
2019-02-04T06:57:14.924Z,-6.22
2019-02-04T06:58:14.833Z,-6.26
2019-02-04T06:59:14.744Z,-6.33
2019-02-04T07:00:14.657Z,-6.40
2019-02-04T07:01:14.568Z,-6.47
2019-02-04T07:02:14.480Z,-6.54
2019-02-04T07:03:14.389Z,-6.72
2019-02-04T07:04:14.307Z,-6.80
2019-02-04T07:05:14.214Z,-6.80
2019-02-04T07:06:14.133Z,-6.76
2019-02-04T07:07:15.195Z,-6.83
2019-02-04T07:08:13.952Z,-6.75
2019-02-04T07:09:13.865Z,-6.73
2019-02-04T07:10:13.779Z,-6.76
2019-02-04T07:11:13.686Z,-6.75
2019-02-04T07:12:13.599Z,-6.70
2019-02-04T07:13:13.512Z,-6.70
2019-02-04T07:14:13.421Z,-6.69
2019-02-04T07:15:13.333Z,-6.59
2019-02-04T07:16:13.247Z,-6.44
2019-02-04T07:17:13.163Z,-6.46
2019-02-04T07:18:13.074Z,-6.59
2019-02-04T07:19:23.472Z,-6.65
2019-02-04T07:20:12.888Z,-6.73
2019-02-04T07:21:12.804Z,-6.73
2019-02-04T07:22:12.728Z,-6.83
2019-02-04T07:23:12.630Z,-6.76
2019-02-04T07:24:12.541Z,-6.73
2019-02-04T07:25:12.450Z,-6.68
2019-02-04T07:26:12.364Z,-6.53
2019-02-04T07:27:12.277Z,-6.53
2019-02-04T07:28:12.187Z,-6.38
2019-02-04T07:29:12.099Z,-6.28
2019-02-04T07:30:12.011Z,-6.04
2019-02-04T07:31:11.925Z,-5.94
2019-02-04T07:32:11.839Z,-5.87
2019-02-04T07:33:11.747Z,-5.87
2019-02-04T07:34:11.657Z,-5.76
2019-02-04T07:35:11.574Z,-5.65
2019-02-04T07:36:11.489Z,-5.47
2019-02-04T07:37:11.394Z,-5.25
2019-02-04T07:38:11.306Z,-5.32
2019-02-04T07:39:11.217Z,-5.08
2019-02-04T07:40:11.123Z,-4.94
2019-02-04T07:41:11.039Z,-4.86
2019-02-04T07:42:10.947Z,-4.82
2019-02-04T07:43:10.868Z,-4.79
2019-02-04T07:44:10.777Z,-4.67
2019-02-04T07:45:10.689Z,-4.74
2019-02-04T07:46:10.599Z,-4.58
2019-02-04T07:47:10.512Z,-4.45
2019-02-04T07:48:10.426Z,-4.40
2019-02-04T07:49:10.335Z,-4.31
2019-02-04T07:50:10.247Z,-4.26
2019-02-04T07:51:10.155Z,-4.24
2019-02-04T07:52:10.080Z,-4.03
2019-02-04T07:53:09.981Z,-3.78
2019-02-04T07:54:09.897Z,-3.66
2019-02-04T07:55:09.816Z,-3.49
2019-02-04T07:56:09.728Z,-3.48
2019-02-04T07:57:09.631Z,-3.45
2019-02-04T07:58:09.548Z,-3.37
2019-02-04T07:59:09.459Z,-3.34
2019-02-04T08:00:09.384Z,-3.16
2019-02-04T08:01:09.283Z,-3.20
2019-02-04T08:02:09.203Z,-2.95
2019-02-04T08:03:09.106Z,-2.68
2019-02-04T08:04:09.031Z,-2.54
2019-02-04T08:05:08.932Z,-2.39
2019-02-04T08:06:08.844Z,-2.27
2019-02-04T08:07:08.758Z,-2.20
2019-02-04T08:08:08.778Z,-2.15
2019-02-04T08:09:08.583Z,-2.07
2019-02-04T08:10:08.497Z,-2.02
2019-02-04T08:11:08.413Z,-2.04
2019-02-04T08:12:08.331Z,-1.91
2019-02-04T08:13:08.234Z,-1.70
2019-02-04T08:14:08.178Z,-1.55
2019-02-04T08:15:08.068Z,-1.35
2019-02-04T08:16:07.973Z,-1.29
2019-02-04T08:17:07.888Z,-1.19
2019-02-04T08:18:07.798Z,-1.06
2019-02-04T08:19:07.716Z,-0.86
2019-02-04T08:20:07.630Z,-0.80
2019-02-04T08:21:07.542Z,-0.61
2019-02-04T08:22:07.453Z,-0.54
2019-02-04T08:23:07.366Z,-0.43
2019-02-04T08:24:07.286Z,-0.38
2019-02-04T08:25:07.203Z,-0.33
2019-02-04T08:26:07.125Z,-0.26
2019-02-04T08:27:07.030Z,-0.10
2019-02-04T08:28:06.937Z,0.01
2019-02-04T08:29:06.848Z,0.14
2019-02-04T08:30:06.765Z,0.31
2019-02-04T08:31:06.682Z,0.50
2019-02-04T08:32:06.597Z,0.75
2019-02-04T08:33:06.504Z,0.97
2019-02-04T08:34:06.420Z,1.04
2019-02-04T08:35:06.337Z,1.05
2019-02-04T08:36:06.248Z,1.11
2019-02-04T08:37:06.159Z,1.18
2019-02-04T08:38:06.079Z,1.12
2019-02-04T08:39:05.990Z,1.19
2019-02-04T08:40:05.904Z,1.29
2019-02-04T08:41:05.815Z,1.48
2019-02-04T08:42:05.739Z,1.55
2019-02-04T08:43:05.648Z,1.74
2019-02-04T08:44:05.566Z,1.77
2019-02-04T08:45:05.481Z,1.92
2019-02-04T08:46:05.404Z,1.99
2019-02-04T08:47:05.309Z,1.99
2019-02-04T08:48:05.231Z,2.03
2019-02-04T08:49:05.146Z,2.02
2019-02-04T08:50:05.054Z,2.12
2019-02-04T08:51:04.983Z,2.09
2019-02-04T08:52:04.883Z,2.14
2019-02-04T08:53:04.799Z,2.16
2019-02-04T08:54:04.718Z,2.19
2019-02-04T08:55:04.637Z,2.23
2019-02-04T08:56:04.547Z,2.26
2019-02-04T08:57:04.460Z,2.39
2019-02-04T08:58:04.401Z,2.35
2019-02-04T08:59:04.317Z,2.42
2019-02-04T09:00:04.206Z,2.50
2019-02-04T09:01:04.121Z,2.52
2019-02-04T09:02:04.041Z,2.56
2019-02-04T09:03:03.960Z,2.50
2019-02-04T09:04:03.876Z,2.60
2019-02-04T09:05:03.785Z,2.67
2019-02-04T09:06:03.776Z,2.60
2019-02-04T09:07:03.622Z,2.84
2019-02-04T09:08:03.532Z,2.92
2019-02-04T09:09:03.452Z,2.96
2019-02-04T09:10:03.373Z,2.96
2019-02-04T09:11:03.282Z,3.03
2019-02-04T09:12:03.205Z,3.17
2019-02-04T09:13:03.112Z,3.28
2019-02-04T09:14:03.032Z,3.39
2019-02-04T09:15:02.958Z,3.56
2019-02-04T09:16:02.863Z,3.68
2019-02-04T09:17:02.783Z,3.65
2019-02-04T09:18:02.700Z,3.79
2019-02-04T09:19:02.611Z,3.79
2019-02-04T09:20:09.595Z,3.80
2019-02-04T09:21:02.448Z,3.98
2019-02-04T09:22:02.367Z,3.98
2019-02-04T09:23:02.284Z,4.05
2019-02-04T09:24:02.217Z,4.08
2019-02-04T09:25:02.118Z,4.18
2019-02-04T09:26:02.037Z,4.11
2019-02-04T09:27:01.962Z,4.16
2019-02-04T09:28:01.865Z,4.23
2019-02-04T09:29:01.789Z,4.36
2019-02-04T09:30:01.707Z,4.46
2019-02-04T09:31:01.620Z,4.43
2019-02-04T09:32:01.534Z,4.56
2019-02-04T09:33:01.456Z,4.68
2019-02-04T09:34:01.375Z,4.69
2019-02-04T09:35:01.289Z,4.74
2019-02-04T09:36:01.207Z,4.73
2019-02-04T09:37:01.159Z,4.66
2019-02-04T09:38:01.041Z,4.72
2019-02-04T09:39:00.995Z,4.74
2019-02-04T09:40:00.882Z,4.91
2019-02-04T09:41:00.796Z,4.96
2019-02-04T09:42:00.714Z,5.03
2019-02-04T09:43:00.630Z,4.99
2019-02-04T09:44:02.402Z,5.02
2019-02-04T09:45:00.464Z,5.05
2019-02-04T09:46:00.391Z,5.05
2019-02-04T09:47:00.303Z,5.21
2019-02-04T09:48:00.271Z,5.16
2019-02-04T09:49:00.137Z,5.11
2019-02-04T09:50:00.090Z,5.14
2019-02-04T09:50:59.979Z,5.18
2019-02-04T09:51:59.898Z,5.29
2019-02-04T09:52:59.811Z,5.35
2019-02-04T09:53:59.732Z,5.52
2019-02-04T09:54:59.650Z,5.59
2019-02-04T09:55:59.566Z,5.54
2019-02-04T09:56:59.486Z,5.71
2019-02-04T09:57:59.402Z,5.65
2019-02-04T09:58:59.326Z,5.65
2019-02-04T09:59:59.400Z,5.59
2019-02-04T10:00:59.162Z,5.63
2019-02-04T10:01:59.080Z,5.72
2019-02-04T10:02:59.002Z,5.75
2019-02-04T10:03:58.931Z,5.80
2019-02-04T10:04:58.832Z,5.74
2019-02-04T10:05:58.763Z,5.85
2019-02-04T10:06:58.670Z,5.71
2019-02-04T10:07:58.599Z,5.72
2019-02-04T10:08:58.508Z,5.63
2019-02-04T10:09:59.068Z,5.56
2019-02-04T10:10:58.356Z,5.65
2019-02-04T10:11:58.272Z,5.67
2019-02-04T10:12:58.187Z,5.67
2019-02-04T10:13:58.107Z,5.71
2019-02-04T10:14:58.045Z,5.78
2019-02-04T10:15:57.943Z,5.85
2019-02-04T10:16:57.911Z,5.96
2019-02-04T10:17:57.866Z,6.08
2019-02-04T10:18:57.700Z,6.08
2019-02-04T10:19:57.621Z,6.00
2019-02-04T10:20:57.550Z,5.92
2019-02-04T10:21:57.465Z,5.83
2019-02-04T10:22:57.390Z,5.86
2019-02-04T10:23:57.297Z,5.90
2019-02-04T10:24:57.264Z,5.83
2019-02-04T10:25:57.157Z,5.80
2019-02-04T10:26:57.105Z,5.78
2019-02-04T10:27:56.983Z,5.65
2019-02-04T10:28:56.903Z,5.68
2019-02-04T10:29:56.856Z,5.70
2019-02-04T10:30:56.740Z,5.68
2019-02-04T10:31:56.673Z,5.71
2019-02-04T10:32:56.605Z,5.89
2019-02-04T10:33:56.519Z,5.93
2019-02-04T10:34:56.412Z,5.85
2019-02-04T10:35:56.334Z,5.80
2019-02-04T10:36:56.254Z,5.81
2019-02-04T10:37:56.173Z,5.83
2019-02-04T10:38:56.102Z,6.08
2019-02-04T10:39:56.015Z,6.15
2019-02-04T10:40:55.957Z,6.10
2019-02-04T10:41:55.903Z,5.99
2019-02-04T10:42:55.800Z,5.90
2019-02-04T10:43:55.707Z,5.92
2019-02-04T10:44:55.635Z,5.95
2019-02-04T10:45:55.530Z,5.93
2019-02-04T10:46:55.456Z,5.95
2019-02-04T10:47:55.389Z,6.07
2019-02-04T10:48:55.329Z,6.04
2019-02-04T10:49:55.209Z,6.04
2019-02-04T10:50:55.198Z,6.13
2019-02-04T10:51:55.093Z,6.22
2019-02-04T10:52:54.972Z,6.27
2019-02-04T10:53:54.943Z,6.32
2019-02-04T10:54:54.812Z,6.24
2019-02-04T10:55:54.741Z,6.32
2019-02-04T10:56:54.698Z,6.22
2019-02-04T10:57:54.585Z,6.13
2019-02-04T10:58:54.520Z,6.24
2019-02-04T10:59:54.579Z,6.30
2019-02-04T11:00:54.336Z,6.37
2019-02-04T11:01:54.261Z,6.36
2019-02-04T11:02:54.177Z,6.45
2019-02-04T11:03:54.105Z,6.41
2019-02-04T11:04:54.011Z,6.54
2019-02-04T11:05:53.932Z,6.47
2019-02-04T11:06:53.990Z,6.44
2019-02-04T11:07:53.791Z,6.37
2019-02-04T11:08:53.752Z,6.33
2019-02-04T11:09:53.623Z,6.26
2019-02-04T11:10:53.535Z,6.22
2019-02-04T11:11:53.478Z,6.24
2019-02-04T11:12:53.408Z,6.22
2019-02-04T11:13:53.294Z,6.11
2019-02-04T11:14:53.276Z,6.13
2019-02-04T11:15:53.134Z,6.13
2019-02-04T11:16:53.081Z,6.03
2019-02-04T11:17:53.003Z,6.04
2019-02-04T11:18:52.928Z,6.10
2019-02-04T11:19:52.830Z,6.08
2019-02-04T11:20:57.969Z,6.17
2019-02-04T11:21:52.685Z,6.11
2019-02-04T11:22:52.613Z,6.21
2019-02-04T11:23:52.503Z,6.44
2019-02-04T11:24:52.484Z,6.45
2019-02-04T11:25:52.346Z,6.52
2019-02-04T11:26:52.261Z,6.48
2019-02-04T11:27:52.175Z,6.27
2019-02-04T11:28:52.134Z,6.33
2019-02-04T11:29:52.042Z,6.27
2019-02-04T11:30:51.949Z,6.27
2019-02-04T11:31:51.881Z,6.29
2019-02-04T11:32:51.782Z,6.18
2019-02-04T11:33:51.727Z,6.29
2019-02-04T11:34:51.639Z,6.37
2019-02-04T11:35:51.570Z,6.47
2019-02-04T11:36:51.462Z,6.44
2019-02-04T11:37:51.417Z,6.32
2019-02-04T11:38:51.379Z,6.30
2019-02-04T11:39:51.242Z,6.44
2019-02-04T11:40:51.173Z,6.41
2019-02-04T11:41:51.075Z,6.48
2019-02-04T11:42:50.997Z,6.50
2019-02-04T11:43:50.941Z,6.30
2019-02-04T11:44:50.873Z,6.34
2019-02-04T11:45:50.812Z,6.30
2019-02-04T11:46:50.667Z,6.24
2019-02-04T11:47:50.597Z,6.22
2019-02-04T11:48:50.511Z,6.32
2019-02-04T11:49:50.443Z,6.37
2019-02-04T11:50:50.353Z,6.33
2019-02-04T11:51:50.274Z,6.33
2019-02-04T11:52:50.197Z,6.44
2019-02-04T11:53:50.109Z,6.32
2019-02-04T11:54:50.036Z,6.18
2019-02-04T11:55:49.954Z,6.07
2019-02-04T11:56:49.877Z,6.10
2019-02-04T11:57:49.802Z,6.00
2019-02-04T11:58:49.718Z,5.96
2019-02-04T11:59:49.638Z,5.86
2019-02-04T12:00:49.561Z,5.83
2019-02-04T12:01:49.479Z,5.97
2019-02-04T12:02:49.400Z,6.10
2019-02-04T12:03:49.325Z,6.04
2019-02-04T12:04:49.236Z,5.92
2019-02-04T12:05:49.161Z,5.71
2019-02-04T12:06:49.095Z,5.70
2019-02-04T12:07:48.998Z,5.53
2019-02-04T12:08:48.918Z,5.59
2019-02-04T12:09:48.842Z,5.56
2019-02-04T12:10:48.763Z,5.59
2019-02-04T12:11:48.686Z,5.42
2019-02-04T12:12:48.612Z,5.36
2019-02-04T12:13:48.524Z,5.31
2019-02-04T12:14:48.445Z,5.18
2019-02-04T12:15:48.375Z,5.10
2019-02-04T12:16:48.305Z,4.85
2019-02-04T12:17:48.206Z,4.73
2019-02-04T12:18:48.123Z,4.74
2019-02-04T12:19:48.044Z,4.77
2019-02-04T12:20:47.969Z,4.76
2019-02-04T12:21:47.884Z,4.73
2019-02-04T12:22:47.816Z,4.95
2019-02-04T12:23:47.732Z,4.99
2019-02-04T12:24:47.659Z,5.17
2019-02-04T12:25:47.567Z,5.39
2019-02-04T12:26:47.488Z,5.45
2019-02-04T12:27:47.405Z,5.54
2019-02-04T12:28:47.323Z,5.60
2019-02-04T12:29:47.250Z,5.57
2019-02-04T12:30:47.172Z,5.63
2019-02-04T12:31:47.085Z,5.71
2019-02-04T12:32:47.008Z,5.83
2019-02-04T12:33:46.943Z,6.00
2019-02-04T12:34:46.848Z,6.14
2019-02-04T12:35:46.766Z,6.17
2019-02-04T12:36:46.697Z,6.33
2019-02-04T12:37:46.622Z,6.34
2019-02-04T12:38:46.527Z,6.44
2019-02-04T12:39:46.448Z,6.32
2019-02-04T12:40:46.367Z,6.47
2019-02-04T12:41:46.297Z,6.41
2019-02-04T12:42:46.207Z,6.41
2019-02-04T12:43:46.130Z,6.41
2019-02-04T12:44:46.044Z,6.47
2019-02-04T12:45:45.970Z,6.47
2019-02-04T12:46:45.891Z,6.48
2019-02-04T12:47:45.814Z,6.57
2019-02-04T12:48:45.739Z,6.66
2019-02-04T12:49:45.653Z,6.65
2019-02-04T12:50:45.572Z,6.47
2019-02-04T12:51:45.493Z,6.30
2019-02-04T12:52:45.413Z,6.00
2019-02-04T12:53:45.341Z,6.04
2019-02-04T12:54:45.265Z,6.08
2019-02-04T12:55:45.171Z,6.11
2019-02-04T12:56:45.092Z,6.04
2019-02-04T12:57:45.014Z,5.85
2019-02-04T12:58:55.286Z,5.77
2019-02-04T12:59:45.305Z,5.72
2019-02-04T13:00:44.782Z,5.67
2019-02-04T13:01:44.695Z,5.50
2019-02-04T13:02:44.615Z,5.62
2019-02-04T13:03:44.539Z,5.60
2019-02-04T13:04:44.453Z,5.56